Flight Track Log - Related Links

Times and Time Zones

All times are in EDT time to prevent confusion due to time zone crossing. See the KAP5 flight status page for this flight to view local times or setup timezone preferences in your user account.

Time Position Orientation Groundspeed Altitude Reporting Facility
EDT Latitude Longitude Course Direction KTS MPH feet Rate Location/Type
Sun 08:10:40 AM 42.3500 -70.9833 160° South 115 132 800  Level KA90
Sun 08:11:46 AM 42.3167 -70.9667 160° South 116 133 1,500 667 Climbing KA90
Sun 08:12:46 AM 42.2833 -70.9500 160° South 125 144 2,200 650 Climbing KA90
Sun 08:13:46 AM 42.2500 -70.9333 160° South 118 136 2,800 650 Climbing KA90
Sun 08:14:46 AM 42.2167 -70.9167 160° South 120 138 3,500 600 Climbing KA90
Sun 08:15:46 AM 42.1833 -70.9000 160° South 122 140 4,000 500 Climbing KA90
Sun 08:16:46 AM 42.1500 -70.8833 160° South 130 150 4,500 526 Climbing KA90
Sun 08:17:40 AM 42.1167 -70.8667 160° South 129 148 5,000 556 Climbing KA90
Sun 08:19:00 AM 42.0693 -70.8524 167° South  Level FlightAware Approximate
Sun 08:26:00 AM 41.8215 -70.7733 161° South  Level FlightAware Approximate
Sun 08:27:00 AM 41.7870 -70.7577 161° South  Level FlightAware Approximate
Sun 08:28:00 AM 41.7525 -70.7420 161° South  Level FlightAware Approximate
Sun 08:29:00 AM 41.7178 -70.7275 164° South  Level FlightAware Approximate
Sun 08:30:00 AM 41.6828 -70.7144 164° South  Level FlightAware Approximate
Sun 08:31:00 AM 41.6478 -70.7012 164° South  Level FlightAware Approximate
Sun 08:32:00 AM 41.6127 -70.6881 164° South  Level FlightAware Approximate
Sun 08:33:00 AM 41.5777 -70.6749 164° South  Level FlightAware Approximate
Sun 08:34:00 AM 41.5427 -70.6618 164° South  Level FlightAware Approximate
Sun 08:35:00 AM 41.5076 -70.6487 164° South  Level FlightAware Approximate
Sun 08:36:00 AM 41.4726 -70.6356 164° South  Level FlightAware Approximate
Sun 08:37:00 AM 41.4377 -70.6217 163° South  Level FlightAware Approximate
Sun 08:38:00 AM 41.4029 -70.6078 163° South  Level FlightAware Approximate
Sun 08:39:00 AM 41.3934 -70.6139 163° South  Level Estimated
Sun 08:40:00 AM 41.3934 -70.6139 163° South  Level Estimated
Sun 08:41:00 AM 41.3934 -70.6139 163° South  Level Estimated
Sun 08:42:00 AM 41.3934 -70.6139 163° South  Level Estimated
Sun 08:43:00 AM 41.3934 -70.6139 163° South  Level Estimated
Sun 08:44:00 AM 41.3934 -70.6139 163° South  Level Estimated

Login

Don't have an account? Register now (free) for customized features, flight alerts, and more!